sensor_id;sensor_type;location;lat;lon;timestamp;pressure;altitude;pressure_sealevel;temperature;humidity
28606;BME280;46498;49.968;7.754;2023-02-17T00:01:39;97718.00;;;7.24;100.00
28606;BME280;46498;49.968;7.754;2023-02-17T00:06:40;97715.00;;;7.18;100.00
28606;BME280;46498;49.968;7.754;2023-02-17T00:11:41;97717.00;;;7.20;100.00
28606;BME280;46498;49.968;7.754;2023-02-17T00:16:43;97702.00;;;7.31;100.00
28606;BME280;46498;49.968;7.754;2023-02-17T00:21:43;97705.00;;;7.33;100.00
28606;BME280;46498;49.968;7.754;2023-02-17T00:26:44;97695.00;;;7.42;100.00
28606;BME280;46498;49.968;7.754;2023-02-17T00:31:45;97713.00;;;7.38;100.00
28606;BME280;46498;49.968;7.754;2023-02-17T00:36:46;97715.00;;;7.28;100.00
28606;BME280;46498;49.968;7.754;2023-02-17T00:41:47;97712.00;;;7.33;100.00
28606;BME280;46498;49.968;7.754;2023-02-17T00:46:48;97713.00;;;7.48;100.00
28606;BME280;46498;49.968;7.754;2023-02-17T00:51:50;97722.00;;;7.50;100.00
28606;BME280;46498;49.968;7.754;2023-02-17T00:56:52;97720.00;;;7.53;100.00
28606;BME280;46498;49.968;7.754;2023-02-17T01:01:52;97716.00;;;7.50;100.00
28606;BME280;46498;49.968;7.754;2023-02-17T01:06:53;97714.00;;;7.54;100.00
28606;BME280;46498;49.968;7.754;2023-02-17T01:11:56;97708.00;;;7.57;100.00
28606;BME280;46498;49.968;7.754;2023-02-17T01:16:58;97719.00;;;7.48;100.00
28606;BME280;46498;49.968;7.754;2023-02-17T01:22:01;97719.00;;;7.66;100.00
28606;BME280;46498;49.968;7.754;2023-02-17T01:27:02;97711.00;;;7.64;100.00
28606;BME280;46498;49.968;7.754;2023-02-17T01:32:03;97717.00;;;7.57;100.00
28606;BME280;46498;49.968;7.754;2023-02-17T01:37:04;97703.00;;;7.54;100.00
28606;BME280;46498;49.968;7.754;2023-02-17T01:42:16;97701.00;;;7.53;100.00
28606;BME280;46498;49.968;7.754;2023-02-17T01:47:17;97702.00;;;7.48;100.00
28606;BME280;46498;49.968;7.754;2023-02-17T01:52:23;97690.00;;;7.51;100.00
28606;BME280;46498;49.968;7.754;2023-02-17T01:57:29;97681.00;;;7.47;100.00
28606;BME280;46498;49.968;7.754;2023-02-17T02:02:32;97673.00;;;7.55;100.00
28606;BME280;46498;49.968;7.754;2023-02-17T02:07:35;97666.00;;;7.51;100.00
28606;BME280;46498;49.968;7.754;2023-02-17T02:12:40;97642.00;;;7.53;100.00
28606;BME280;46498;49.968;7.754;2023-02-17T02:18:10;97636.00;;;7.53;100.00
28606;BME280;46498;49.968;7.754;2023-02-17T02:23:52;97618.00;;;7.57;100.00
28606;BME280;46498;49.968;7.754;2023-02-17T02:38:24;97612.00;;;7.60;100.00
28606;BME280;46498;49.968;7.754;2023-02-17T02:43:29;97603.00;;;7.68;100.00
28606;BME280;46498;49.968;7.754;2023-02-17T02:48:32;97604.00;;;7.69;100.00
28606;BME280;46498;49.968;7.754;2023-02-17T02:56:34;97619.00;;;7.73;100.00
28606;BME280;46498;49.968;7.754;2023-02-17T03:04:18;97612.00;;;7.66;100.00
28606;BME280;46498;49.968;7.754;2023-02-17T03:09:22;97604.00;;;7.71;100.00
28606;BME280;46498;49.968;7.754;2023-02-17T03:14:24;97603.00;;;7.72;100.00
28606;BME280;46498;49.968;7.754;2023-02-17T03:19:25;97604.00;;;7.65;100.00
28606;BME280;46498;49.968;7.754;2023-02-17T03:24:26;97604.00;;;7.58;100.00
28606;BME280;46498;49.968;7.754;2023-02-17T03:29:27;97602.00;;;7.71;100.00
28606;BME280;46498;49.968;7.754;2023-02-17T03:34:29;97601.00;;;7.63;100.00
28606;BME280;46498;49.968;7.754;2023-02-17T03:39:30;97596.00;;;7.62;100.00
28606;BME280;46498;49.968;7.754;2023-02-17T03:44:31;97601.00;;;7.74;100.00
28606;BME280;46498;49.968;7.754;2023-02-17T03:49:32;97598.00;;;7.66;100.00
28606;BME280;46498;49.968;7.754;2023-02-17T03:54:33;97610.00;;;7.69;100.00
28606;BME280;46498;49.968;7.754;2023-02-17T03:59:34;97596.00;;;7.60;100.00
28606;BME280;46498;49.968;7.754;2023-02-17T04:04:35;97585.00;;;7.62;100.00
28606;BME280;46498;49.968;7.754;2023-02-17T04:09:36;97599.00;;;7.76;100.00
28606;BME280;46498;49.968;7.754;2023-02-17T04:14:36;97597.00;;;7.92;100.00
28606;BME280;46498;49.968;7.754;2023-02-17T04:19:37;97595.00;;;7.95;100.00
28606;BME280;46498;49.968;7.754;2023-02-17T04:24:38;97580.00;;;7.89;100.00
28606;BME280;46498;49.968;7.754;2023-02-17T04:29:39;97591.00;;;7.98;100.00
28606;BME280;46498;49.968;7.754;2023-02-17T04:34:40;97594.00;;;7.97;100.00
28606;BME280;46498;49.968;7.754;2023-02-17T04:39:41;97609.00;;;7.98;100.00
28606;BME280;46498;49.968;7.754;2023-02-17T04:44:41;97592.00;;;7.97;100.00
28606;BME280;46498;49.968;7.754;2023-02-17T04:49:42;97593.00;;;8.05;100.00
28606;BME280;46498;49.968;7.754;2023-02-17T04:54:43;97584.00;;;8.06;100.00
28606;BME280;46498;49.968;7.754;2023-02-17T04:59:44;97587.00;;;8.12;100.00
28606;BME280;46498;49.968;7.754;2023-02-17T05:04:45;97590.00;;;8.15;100.00
28606;BME280;46498;49.968;7.754;2023-02-17T05:09:46;97583.00;;;8.14;100.00
28606;BME280;46498;49.968;7.754;2023-02-17T05:14:47;97598.00;;;8.17;100.00
28606;BME280;46498;49.968;7.754;2023-02-17T05:19:48;97592.00;;;8.16;100.00
28606;BME280;46498;49.968;7.754;2023-02-17T05:24:49;97605.00;;;8.16;100.00
28606;BME280;46498;49.968;7.754;2023-02-17T05:29:50;97616.00;;;8.09;100.00
28606;BME280;46498;49.968;7.754;2023-02-17T05:34:51;97603.00;;;8.10;100.00
28606;BME280;46498;49.968;7.754;2023-02-17T05:39:52;97595.00;;;8.15;100.00
28606;BME280;46498;49.968;7.754;2023-02-17T05:44:53;97594.00;;;8.16;100.00
28606;BME280;46498;49.968;7.754;2023-02-17T05:49:54;97587.00;;;8.18;100.00
28606;BME280;46498;49.968;7.754;2023-02-17T05:54:55;97594.00;;;8.17;100.00
28606;BME280;46498;49.968;7.754;2023-02-17T05:59:56;97591.00;;;8.17;100.00
28606;BME280;46498;49.968;7.754;2023-02-17T06:04:57;97592.00;;;8.16;100.00
28606;BME280;46498;49.968;7.754;2023-02-17T06:09:58;97594.00;;;8.14;100.00
28606;BME280;46498;49.968;7.754;2023-02-17T06:14:59;97603.00;;;8.20;100.00
28606;BME280;46498;49.968;7.754;2023-02-17T06:20:00;97605.00;;;8.18;100.00
28606;BME280;46498;49.968;7.754;2023-02-17T06:25:02;97598.00;;;8.17;100.00
28606;BME280;46498;49.968;7.754;2023-02-17T06:30:04;97607.00;;;8.17;100.00
28606;BME280;46498;49.968;7.754;2023-02-17T06:35:06;97623.00;;;8.15;100.00
28606;BME280;46498;49.968;7.754;2023-02-17T06:40:08;97613.00;;;8.17;100.00
28606;BME280;46498;49.968;7.754;2023-02-17T06:45:09;97613.00;;;8.17;100.00
28606;BME280;46498;49.968;7.754;2023-02-17T06:50:10;97620.00;;;8.18;100.00
28606;BME280;46498;49.968;7.754;2023-02-17T06:55:11;97624.00;;;8.21;100.00
28606;BME280;46498;49.968;7.754;2023-02-17T07:00:12;97625.00;;;8.23;100.00
28606;BME280;46498;49.968;7.754;2023-02-17T07:05:13;97620.00;;;8.22;100.00
28606;BME280;46498;49.968;7.754;2023-02-17T07:10:14;97640.00;;;8.30;100.00
28606;BME280;46498;49.968;7.754;2023-02-17T07:15:15;97636.00;;;8.28;100.00
28606;BME280;46498;49.968;7.754;2023-02-17T07:20:16;97633.00;;;8.25;100.00
28606;BME280;46498;49.968;7.754;2023-02-17T07:25:17;97626.00;;;8.35;100.00
28606;BME280;46498;49.968;7.754;2023-02-17T07:30:18;97638.00;;;8.28;100.00
28606;BME280;46498;49.968;7.754;2023-02-17T07:35:19;97635.00;;;8.37;100.00
28606;BME280;46498;49.968;7.754;2023-02-17T07:40:20;97646.00;;;8.37;100.00
28606;BME280;46498;49.968;7.754;2023-02-17T07:45:20;97655.00;;;8.41;100.00
28606;BME280;46498;49.968;7.754;2023-02-17T07:50:21;97651.00;;;8.49;100.00
28606;BME280;46498;49.968;7.754;2023-02-17T07:55:22;97640.00;;;8.45;100.00
28606;BME280;46498;49.968;7.754;2023-02-17T08:00:23;97630.00;;;8.49;100.00
28606;BME280;46498;49.968;7.754;2023-02-17T08:05:24;97647.00;;;8.60;100.00
28606;BME280;46498;49.968;7.754;2023-02-17T08:10:26;97644.00;;;8.60;100.00
28606;BME280;46498;49.968;7.754;2023-02-17T08:15:45;97645.00;;;8.64;100.00
28606;BME280;46498;49.968;7.754;2023-02-17T08:20:46;97643.00;;;8.71;100.00
28606;BME280;46498;49.968;7.754;2023-02-17T08:25:47;97647.00;;;8.79;100.00
28606;BME280;46498;49.968;7.754;2023-02-17T08:30:48;97648.00;;;8.80;100.00
28606;BME280;46498;49.968;7.754;2023-02-17T08:35:49;97644.00;;;8.81;100.00
28606;BME280;46498;49.968;7.754;2023-02-17T08:40:50;97654.00;;;8.80;100.00
28606;BME280;46498;49.968;7.754;2023-02-17T08:45:51;97651.00;;;8.78;100.00
28606;BME280;46498;49.968;7.754;2023-02-17T08:50:51;97657.00;;;8.78;100.00
28606;BME280;46498;49.968;7.754;2023-02-17T08:55:52;97637.00;;;8.83;100.00
28606;BME280;46498;49.968;7.754;2023-02-17T09:00:53;97639.00;;;8.93;100.00
28606;BME280;46498;49.968;7.754;2023-02-17T09:05:55;97639.00;;;8.97;100.00
28606;BME280;46498;49.968;7.754;2023-02-17T09:10:57;97645.00;;;9.12;100.00
28606;BME280;46498;49.968;7.754;2023-02-17T09:15:59;97641.00;;;9.24;100.00
28606;BME280;46498;49.968;7.754;2023-02-17T09:21:08;97654.00;;;9.32;100.00
28606;BME280;46498;49.968;7.754;2023-02-17T09:26:11;97658.00;;;9.38;100.00
28606;BME280;46498;49.968;7.754;2023-02-17T09:31:14;97668.00;;;9.41;100.00
28606;BME280;46498;49.968;7.754;2023-02-17T09:36:39;97680.00;;;9.40;100.00
28606;BME280;46498;49.968;7.754;2023-02-17T09:41:43;97692.00;;;9.39;100.00
28606;BME280;46498;49.968;7.754;2023-02-17T09:47:49;97684.00;;;9.52;100.00
28606;BME280;46498;49.968;7.754;2023-02-17T09:52:58;97676.00;;;9.67;100.00
28606;BME280;46498;49.968;7.754;2023-02-17T09:58:08;97685.00;;;9.97;100.00
28606;BME280;46498;49.968;7.754;2023-02-17T10:03:40;97681.00;;;10.02;100.00
28606;BME280;46498;49.968;7.754;2023-02-17T10:11:31;97700.00;;;9.98;100.00
28606;BME280;46498;49.968;7.754;2023-02-17T10:16:44;97702.00;;;9.98;100.00
28606;BME280;46498;49.968;7.754;2023-02-17T10:21:56;97714.00;;;9.95;100.00
28606;BME280;46498;49.968;7.754;2023-02-17T10:27:07;97715.00;;;10.02;100.00
28606;BME280;46498;49.968;7.754;2023-02-17T10:32:21;97717.00;;;10.07;100.00
28606;BME280;46498;49.968;7.754;2023-02-17T10:39:15;97722.00;;;10.08;100.00
28606;BME280;46498;49.968;7.754;2023-02-17T10:44:24;97719.00;;;10.19;100.00
28606;BME280;46498;49.968;7.754;2023-02-17T10:49:33;97731.00;;;10.27;100.00
28606;BME280;46498;49.968;7.754;2023-02-17T10:54:37;97724.00;;;10.26;100.00
28606;BME280;46498;49.968;7.754;2023-02-17T10:59:43;97725.00;;;10.26;100.00
28606;BME280;46498;49.968;7.754;2023-02-17T11:04:47;97735.00;;;10.29;100.00
28606;BME280;46498;49.968;7.754;2023-02-17T11:09:51;97738.00;;;10.24;100.00
28606;BME280;46498;49.968;7.754;2023-02-17T11:14:54;97729.00;;;10.24;100.00
28606;BME280;46498;49.968;7.754;2023-02-17T11:20:01;97731.00;;;10.25;100.00
28606;BME280;46498;49.968;7.754;2023-02-17T11:25:17;97715.00;;;10.30;100.00
28606;BME280;46498;49.968;7.754;2023-02-17T11:30:21;97704.00;;;10.37;100.00
28606;BME280;46498;49.968;7.754;2023-02-17T11:35:43;97703.00;;;10.44;100.00
28606;BME280;46498;49.968;7.754;2023-02-17T11:41:03;97679.00;;;10.44;100.00
28606;BME280;46498;49.968;7.754;2023-02-17T11:53:28;97673.00;;;10.64;100.00
28606;BME280;46498;49.968;7.754;2023-02-17T11:59:35;97676.00;;;10.84;100.00
28606;BME280;46498;49.968;7.754;2023-02-17T12:05:02;97678.00;;;10.95;100.00
28606;BME280;46498;49.968;7.754;2023-02-17T12:11:50;97673.00;;;11.06;100.00
28606;BME280;46498;49.968;7.754;2023-02-17T12:17:09;97667.00;;;11.13;100.00
28606;BME280;46498;49.968;7.754;2023-02-17T12:22:42;97675.00;;;11.39;100.00
28606;BME280;46498;49.968;7.754;2023-02-17T12:29:42;97673.00;;;11.39;100.00
28606;BME280;46498;49.968;7.754;2023-02-17T12:34:57;97672.00;;;11.19;100.00
28606;BME280;46498;49.968;7.754;2023-02-17T12:40:15;97671.00;;;11.05;100.00
28606;BME280;46498;49.968;7.754;2023-02-17T12:45:24;97677.00;;;10.98;100.00
28606;BME280;46498;49.968;7.754;2023-02-17T12:50:40;97668.00;;;11.05;100.00
28606;BME280;46498;49.968;7.754;2023-02-17T12:55:46;97670.00;;;10.92;100.00
28606;BME280;46498;49.968;7.754;2023-02-17T13:01:01;97653.00;;;10.86;100.00
28606;BME280;46498;49.968;7.754;2023-02-17T13:06:27;97643.00;;;10.89;100.00
28606;BME280;46498;49.968;7.754;2023-02-17T13:11:34;97639.00;;;10.86;100.00
28606;BME280;46498;49.968;7.754;2023-02-17T13:16:42;97640.00;;;10.92;100.00
28606;BME280;46498;49.968;7.754;2023-02-17T13:21:54;97639.00;;;10.88;100.00
28606;BME280;46498;49.968;7.754;2023-02-17T13:26:56;97630.00;;;10.87;100.00
28606;BME280;46498;49.968;7.754;2023-02-17T13:31:59;97617.00;;;10.79;100.00
28606;BME280;46498;49.968;7.754;2023-02-17T13:49:05;97592.00;;;10.77;100.00
28606;BME280;46498;49.968;7.754;2023-02-17T13:54:07;97613.00;;;11.08;100.00
28606;BME280;46498;49.968;7.754;2023-02-17T13:59:24;97613.00;;;11.15;100.00
28606;BME280;46498;49.968;7.754;2023-02-17T14:04:27;97604.00;;;11.20;100.00
28606;BME280;46498;49.968;7.754;2023-02-17T14:09:31;97599.00;;;11.18;100.00
28606;BME280;46498;49.968;7.754;2023-02-17T14:14:35;97586.00;;;11.13;100.00
28606;BME280;46498;49.968;7.754;2023-02-17T14:19:44;97591.00;;;11.08;100.00
28606;BME280;46498;49.968;7.754;2023-02-17T14:24:57;97584.00;;;11.10;100.00
28606;BME280;46498;49.968;7.754;2023-02-17T14:29:59;97572.00;;;11.08;100.00
28606;BME280;46498;49.968;7.754;2023-02-17T14:40:28;97577.00;;;11.20;100.00
28606;BME280;46498;49.968;7.754;2023-02-17T14:45:29;97590.00;;;11.14;100.00
28606;BME280;46498;49.968;7.754;2023-02-17T14:50:33;97598.00;;;11.12;100.00
28606;BME280;46498;49.968;7.754;2023-02-17T14:55:49;97599.00;;;11.06;100.00
28606;BME280;46498;49.968;7.754;2023-02-17T15:00:52;97583.00;;;10.92;100.00
28606;BME280;46498;49.968;7.754;2023-02-17T15:05:53;97580.00;;;10.87;100.00
28606;BME280;46498;49.968;7.754;2023-02-17T15:10:55;97597.00;;;10.77;100.00
28606;BME280;46498;49.968;7.754;2023-02-17T15:15:55;97604.00;;;10.74;100.00
28606;BME280;46498;49.968;7.754;2023-02-17T15:20:56;97603.00;;;10.67;100.00
28606;BME280;46498;49.968;7.754;2023-02-17T15:25:57;97580.00;;;10.66;100.00
28606;BME280;46498;49.968;7.754;2023-02-17T15:30:58;97595.00;;;10.62;100.00
28606;BME280;46498;49.968;7.754;2023-02-17T15:36:01;97604.00;;;10.60;100.00
28606;BME280;46498;49.968;7.754;2023-02-17T15:41:02;97616.00;;;10.63;100.00
28606;BME280;46498;49.968;7.754;2023-02-17T15:46:10;97619.00;;;10.61;100.00
28606;BME280;46498;49.968;7.754;2023-02-17T15:51:12;97624.00;;;10.66;100.00
28606;BME280;46498;49.968;7.754;2023-02-17T15:56:22;97614.00;;;10.63;100.00
28606;BME280;46498;49.968;7.754;2023-02-17T16:01:31;97622.00;;;10.67;100.00
28606;BME280;46498;49.968;7.754;2023-02-17T16:06:32;97614.00;;;10.62;100.00
28606;BME280;46498;49.968;7.754;2023-02-17T16:11:33;97616.00;;;10.63;100.00
28606;BME280;46498;49.968;7.754;2023-02-17T16:16:35;97628.00;;;10.63;100.00
28606;BME280;46498;49.968;7.754;2023-02-17T16:21:36;97630.00;;;10.63;100.00
28606;BME280;46498;49.968;7.754;2023-02-17T16:26:37;97628.00;;;10.68;100.00
28606;BME280;46498;49.968;7.754;2023-02-17T16:31:38;97634.00;;;10.65;100.00
28606;BME280;46498;49.968;7.754;2023-02-17T16:36:39;97640.00;;;10.66;100.00
28606;BME280;46498;49.968;7.754;2023-02-17T16:41:40;97647.00;;;10.69;100.00
28606;BME280;46498;49.968;7.754;2023-02-17T16:46:47;97649.00;;;10.66;100.00
28606;BME280;46498;49.968;7.754;2023-02-17T16:51:48;97643.00;;;10.64;100.00
28606;BME280;46498;49.968;7.754;2023-02-17T16:56:50;97654.00;;;10.66;100.00
28606;BME280;46498;49.968;7.754;2023-02-17T17:01:52;97648.00;;;10.64;100.00
28606;BME280;46498;49.968;7.754;2023-02-17T17:06:53;97650.00;;;10.62;100.00
28606;BME280;46498;49.968;7.754;2023-02-17T17:11:54;97638.00;;;10.51;100.00
28606;BME280;46498;49.968;7.754;2023-02-17T17:16:57;97641.00;;;10.51;100.00
28606;BME280;46498;49.968;7.754;2023-02-17T17:22:00;97645.00;;;10.57;100.00
28606;BME280;46498;49.968;7.754;2023-02-17T17:27:01;97663.00;;;10.56;100.00
28606;BME280;46498;49.968;7.754;2023-02-17T17:32:03;97655.00;;;10.55;100.00
28606;BME280;46498;49.968;7.754;2023-02-17T17:40:39;97648.00;;;10.60;100.00
28606;BME280;46498;49.968;7.754;2023-02-17T17:45:50;97653.00;;;10.46;100.00
28606;BME280;46498;49.968;7.754;2023-02-17T17:50:51;97673.00;;;10.45;100.00
28606;BME280;46498;49.968;7.754;2023-02-17T17:55:52;97683.00;;;10.46;100.00
28606;BME280;46498;49.968;7.754;2023-02-17T18:00:53;97695.00;;;10.49;100.00
28606;BME280;46498;49.968;7.754;2023-02-17T18:05:54;97705.00;;;10.52;100.00
28606;BME280;46498;49.968;7.754;2023-02-17T18:10:56;97706.00;;;10.51;100.00
28606;BME280;46498;49.968;7.754;2023-02-17T18:15:57;97717.00;;;10.52;100.00
28606;BME280;46498;49.968;7.754;2023-02-17T18:20:58;97723.00;;;10.53;100.00
28606;BME280;46498;49.968;7.754;2023-02-17T18:25:58;97734.00;;;10.51;100.00
28606;BME280;46498;49.968;7.754;2023-02-17T18:31:05;97753.00;;;10.51;100.00
28606;BME280;46498;49.968;7.754;2023-02-17T18:36:13;97743.00;;;10.55;100.00
28606;BME280;46498;49.968;7.754;2023-02-17T18:41:25;97752.00;;;10.61;100.00
28606;BME280;46498;49.968;7.754;2023-02-17T18:46:27;97748.00;;;10.57;100.00
28606;BME280;46498;49.968;7.754;2023-02-17T18:51:28;97747.00;;;10.53;100.00
28606;BME280;46498;49.968;7.754;2023-02-17T18:56:31;97761.00;;;10.55;100.00
28606;BME280;46498;49.968;7.754;2023-02-17T19:01:35;97763.00;;;10.56;100.00
28606;BME280;46498;49.968;7.754;2023-02-17T19:06:39;97760.00;;;10.55;100.00
28606;BME280;46498;49.968;7.754;2023-02-17T19:11:40;97770.00;;;10.53;100.00
28606;BME280;46498;49.968;7.754;2023-02-17T19:16:40;97793.00;;;10.52;100.00
28606;BME280;46498;49.968;7.754;2023-02-17T19:21:41;97797.00;;;10.50;100.00
28606;BME280;46498;49.968;7.754;2023-02-17T19:26:42;97805.00;;;10.50;100.00
28606;BME280;46498;49.968;7.754;2023-02-17T19:31:44;97804.00;;;10.45;100.00
28606;BME280;46498;49.968;7.754;2023-02-17T19:36:45;97812.00;;;10.40;100.00
28606;BME280;46498;49.968;7.754;2023-02-17T19:41:46;97808.00;;;10.34;100.00
28606;BME280;46498;49.968;7.754;2023-02-17T19:46:47;97803.00;;;10.36;100.00
28606;BME280;46498;49.968;7.754;2023-02-17T19:51:48;97803.00;;;10.34;100.00
28606;BME280;46498;49.968;7.754;2023-02-17T19:56:49;97805.00;;;10.32;100.00
28606;BME280;46498;49.968;7.754;2023-02-17T20:01:51;97805.00;;;10.27;100.00
28606;BME280;46498;49.968;7.754;2023-02-17T20:06:52;97817.00;;;10.27;100.00
28606;BME280;46498;49.968;7.754;2023-02-17T20:11:53;97807.00;;;10.23;100.00
28606;BME280;46498;49.968;7.754;2023-02-17T20:16:54;97807.00;;;10.25;100.00
28606;BME280;46498;49.968;7.754;2023-02-17T20:21:56;97821.00;;;10.30;100.00
28606;BME280;46498;49.968;7.754;2023-02-17T20:26:56;97821.00;;;10.25;100.00
28606;BME280;46498;49.968;7.754;2023-02-17T20:31:57;97817.00;;;10.26;100.00
28606;BME280;46498;49.968;7.754;2023-02-17T20:36:59;97833.00;;;10.26;100.00
28606;BME280;46498;49.968;7.754;2023-02-17T20:42:01;97822.00;;;10.26;100.00
28606;BME280;46498;49.968;7.754;2023-02-17T20:47:03;97832.00;;;10.25;100.00
28606;BME280;46498;49.968;7.754;2023-02-17T20:52:04;97821.00;;;10.25;100.00
28606;BME280;46498;49.968;7.754;2023-02-17T20:57:11;97825.00;;;10.24;100.00
28606;BME280;46498;49.968;7.754;2023-02-17T21:02:15;97839.00;;;10.22;100.00
28606;BME280;46498;49.968;7.754;2023-02-17T21:07:16;97835.00;;;10.25;100.00
28606;BME280;46498;49.968;7.754;2023-02-17T21:12:17;97842.00;;;10.19;100.00
28606;BME280;46498;49.968;7.754;2023-02-17T21:17:18;97840.00;;;10.18;100.00
28606;BME280;46498;49.968;7.754;2023-02-17T21:22:19;97843.00;;;10.22;100.00
28606;BME280;46498;49.968;7.754;2023-02-17T21:27:20;97844.00;;;10.19;100.00
28606;BME280;46498;49.968;7.754;2023-02-17T21:32:22;97839.00;;;10.17;100.00
28606;BME280;46498;49.968;7.754;2023-02-17T21:37:23;97839.00;;;10.16;100.00
28606;BME280;46498;49.968;7.754;2023-02-17T21:42:24;97850.00;;;10.16;100.00
28606;BME280;46498;49.968;7.754;2023-02-17T21:47:46;97847.00;;;10.10;100.00
28606;BME280;46498;49.968;7.754;2023-02-17T21:52:47;97856.00;;;10.05;100.00
28606;BME280;46498;49.968;7.754;2023-02-17T21:57:47;97853.00;;;9.95;100.00
28606;BME280;46498;49.968;7.754;2023-02-17T22:02:49;97846.00;;;9.94;100.00
28606;BME280;46498;49.968;7.754;2023-02-17T22:07:50;97847.00;;;9.90;100.00
28606;BME280;46498;49.968;7.754;2023-02-17T22:12:50;97850.00;;;9.81;100.00
28606;BME280;46498;49.968;7.754;2023-02-17T22:17:53;97855.00;;;9.79;100.00
28606;BME280;46498;49.968;7.754;2023-02-17T22:22:54;97847.00;;;9.77;100.00
28606;BME280;46498;49.968;7.754;2023-02-17T22:27:54;97850.00;;;9.67;100.00
28606;BME280;46498;49.968;7.754;2023-02-17T22:32:55;97858.00;;;9.64;100.00
28606;BME280;46498;49.968;7.754;2023-02-17T22:37:56;97848.00;;;9.59;100.00
28606;BME280;46498;49.968;7.754;2023-02-17T22:43:01;97842.00;;;9.52;100.00
28606;BME280;46498;49.968;7.754;2023-02-17T22:48:02;97842.00;;;9.49;100.00
28606;BME280;46498;49.968;7.754;2023-02-17T22:53:03;97832.00;;;9.47;100.00
28606;BME280;46498;49.968;7.754;2023-02-17T22:58:03;97829.00;;;9.48;100.00
28606;BME280;46498;49.968;7.754;2023-02-17T23:03:04;97833.00;;;9.49;100.00
28606;BME280;46498;49.968;7.754;2023-02-17T23:08:05;97839.00;;;9.42;100.00
28606;BME280;46498;49.968;7.754;2023-02-17T23:13:06;97834.00;;;9.44;100.00
28606;BME280;46498;49.968;7.754;2023-02-17T23:18:12;97844.00;;;9.40;100.00
28606;BME280;46498;49.968;7.754;2023-02-17T23:23:14;97840.00;;;9.38;100.00
28606;BME280;46498;49.968;7.754;2023-02-17T23:28:17;97851.00;;;9.36;100.00
28606;BME280;46498;49.968;7.754;2023-02-17T23:33:20;97845.00;;;9.29;100.00
28606;BME280;46498;49.968;7.754;2023-02-17T23:38:24;97844.00;;;9.30;100.00
28606;BME280;46498;49.968;7.754;2023-02-17T23:43:26;97835.00;;;9.23;100.00
28606;BME280;46498;49.968;7.754;2023-02-17T23:48:27;97846.00;;;9.14;100.00
28606;BME280;46498;49.968;7.754;2023-02-17T23:53:28;97849.00;;;9.19;100.00
28606;BME280;46498;49.968;7.754;2023-02-17T23:58:29;97851.00;;;9.21;100.00
